createdAt,value
2019-04-26T00:00:56.625Z,17.80
2019-04-26T00:03:32.818Z,17.80
2019-04-26T00:06:03.228Z,17.80
2019-04-26T00:08:38.167Z,17.80
2019-04-26T00:11:18.183Z,17.80
2019-04-26T00:14:27.542Z,17.80
2019-04-26T00:17:06.265Z,17.70
2019-04-26T00:19:45.421Z,17.60
2019-04-26T00:22:13.216Z,17.60
2019-04-26T00:24:43.905Z,17.60
2019-04-26T00:27:19.259Z,17.60
2019-04-26T00:29:54.069Z,17.60
2019-04-26T00:32:35.253Z,17.50
2019-04-26T00:35:08.670Z,17.50
2019-04-26T00:37:45.123Z,17.50
2019-04-26T00:40:18.213Z,17.50
2019-04-26T00:42:49.821Z,17.40
2019-04-26T00:45:26.776Z,17.40
2019-04-26T00:48:00.772Z,17.40
2019-04-26T00:50:37.506Z,17.40
2019-04-26T00:53:09.888Z,17.40
2019-04-26T00:55:44.203Z,17.30
2019-04-26T00:58:20.828Z,17.30
2019-04-26T01:00:54.597Z,17.30
2019-04-26T01:03:27.660Z,17.30
2019-04-26T01:06:01.369Z,17.20
2019-04-26T01:08:34.261Z,17.20
2019-04-26T01:11:07.450Z,17.10
2019-04-26T01:13:44.904Z,17.20
2019-04-26T01:16:14.638Z,17.10
2019-04-26T01:18:50.530Z,17.10
2019-04-26T01:21:23.071Z,17.00
2019-04-26T01:23:56.096Z,17.00
2019-04-26T01:26:32.878Z,17.00
2019-04-26T01:29:17.179Z,16.90
2019-04-26T01:31:55.164Z,16.90
2019-04-26T01:34:39.989Z,16.90
2019-04-26T01:37:10.522Z,16.80
2019-04-26T01:39:47.124Z,16.80
2019-04-26T01:42:53.771Z,16.80
2019-04-26T01:45:45.284Z,16.80
2019-04-26T01:48:40.579Z,16.70
2019-04-26T01:51:31.507Z,16.70
2019-04-26T01:54:01.491Z,16.60
2019-04-26T01:56:34.097Z,16.60
2019-04-26T01:59:04.351Z,16.60
2019-04-26T02:02:02.277Z,16.60
2019-04-26T02:04:34.098Z,16.60
2019-04-26T02:07:04.728Z,16.50
2019-04-26T02:09:34.345Z,16.50
2019-04-26T02:12:04.053Z,16.40
2019-04-26T02:14:33.988Z,16.40
2019-04-26T02:17:04.127Z,16.40
2019-04-26T02:19:34.446Z,16.30
2019-04-26T02:22:14.415Z,16.30
2019-04-26T02:24:46.599Z,16.20
2019-04-26T02:27:24.716Z,16.20
2019-04-26T02:29:55.055Z,16.10
2019-04-26T02:32:26.847Z,16.10
2019-04-26T02:34:57.440Z,16.10
2019-04-26T02:37:28.888Z,16.00
2019-04-26T02:39:58.857Z,16.00
2019-04-26T02:42:48.228Z,15.90
2019-04-26T02:46:05.911Z,16.00
2019-04-26T02:49:15.592Z,15.90
2019-04-26T02:52:09.220Z,15.80
2019-04-26T02:54:48.143Z,15.80
2019-04-26T02:57:31.015Z,15.80
2019-04-26T03:00:06.328Z,15.80
2019-04-26T03:02:37.243Z,15.70
2019-04-26T03:05:09.858Z,15.70
2019-04-26T03:07:55.732Z,15.70
2019-04-26T03:10:40.526Z,15.60
2019-04-26T03:13:19.517Z,15.60
2019-04-26T03:16:10.360Z,15.60
2019-04-26T03:19:01.178Z,15.60
2019-04-26T03:21:53.609Z,15.60
2019-04-26T03:24:35.085Z,15.50
2019-04-26T03:27:54.567Z,15.50
2019-04-26T03:30:38.148Z,15.40
2019-04-26T03:34:02.016Z,15.40
2019-04-26T03:37:19.481Z,15.40
2019-04-26T03:39:55.700Z,15.30
2019-04-26T03:43:02.192Z,15.30
2019-04-26T03:45:47.098Z,15.30
2019-04-26T03:48:41.104Z,15.30
2019-04-26T03:51:20.481Z,15.30
2019-04-26T03:53:57.343Z,15.30
2019-04-26T03:57:06.163Z,15.20
2019-04-26T03:59:50.477Z,15.30
2019-04-26T04:02:36.646Z,15.30
2019-04-26T04:05:33.394Z,15.30
2019-04-26T04:08:06.220Z,15.30
2019-04-26T04:10:47.632Z,15.30
2019-04-26T04:13:44.414Z,15.30
2019-04-26T04:16:25.610Z,15.30
2019-04-26T04:19:01.869Z,15.30
2019-04-26T04:21:52.433Z,15.30
2019-04-26T04:24:35.526Z,15.40
2019-04-26T04:27:18.991Z,15.40
2019-04-26T04:29:57.450Z,15.40
2019-04-26T04:32:57.516Z,15.40
2019-04-26T04:35:30.256Z,15.40
2019-04-26T04:38:09.425Z,15.40
2019-04-26T04:41:30.853Z,15.40
2019-04-26T04:44:30.683Z,15.50
2019-04-26T04:47:25.405Z,15.60
2019-04-26T04:50:08.488Z,15.60
2019-04-26T04:52:52.148Z,15.70
2019-04-26T04:55:42.797Z,15.70
2019-04-26T04:58:20.177Z,15.80
2019-04-26T05:01:55.475Z,15.80
2019-04-26T05:05:30.747Z,15.90
2019-04-26T05:08:36.515Z,15.90
2019-04-26T05:11:16.447Z,16.00
2019-04-26T05:13:54.205Z,16.00
2019-04-26T05:16:54.575Z,16.10
2019-04-26T05:19:52.796Z,16.20
2019-04-26T05:22:56.875Z,16.20
2019-04-26T05:26:18.125Z,16.30
2019-04-26T05:29:13.073Z,16.30
2019-04-26T05:31:52.959Z,16.40
2019-04-26T05:34:46.415Z,16.40
2019-04-26T05:37:43.222Z,16.50
2019-04-26T05:40:57.804Z,16.60
2019-04-26T05:44:08.437Z,16.60
2019-04-26T05:47:24.368Z,16.70
2019-04-26T05:50:49.174Z,16.70
2019-04-26T05:54:42.624Z,16.80
2019-04-26T05:57:45.698Z,16.90
2019-04-26T06:00:57.872Z,16.90
2019-04-26T06:04:09.355Z,17.00
2019-04-26T06:06:48.863Z,17.10
2019-04-26T06:09:43.801Z,17.20
2019-04-26T06:12:38.047Z,17.20
2019-04-26T06:15:45.238Z,17.30
2019-04-26T06:18:45.970Z,17.40
2019-04-26T06:21:36.372Z,17.50
2019-04-26T06:24:27.811Z,17.60
2019-04-26T06:27:28.595Z,17.70
2019-04-26T06:30:08.644Z,17.80
2019-04-26T06:33:05.593Z,17.90
2019-04-26T06:35:38.462Z,17.90
2019-04-26T06:38:54.457Z,18.00
2019-04-26T06:42:09.068Z,18.00
2019-04-26T06:45:31.582Z,18.10
2019-04-26T06:48:12.794Z,18.20
2019-04-26T06:50:49.647Z,18.30
2019-04-26T06:54:02.063Z,18.40
2019-04-26T06:57:14.170Z,18.50
2019-04-26T07:00:13.879Z,18.50
2019-04-26T07:03:07.806Z,18.70
2019-04-26T07:05:41.384Z,18.70
2019-04-26T07:08:57.244Z,18.80
2019-04-26T07:12:01.129Z,18.90
2019-04-26T07:15:08.019Z,19.00
2019-04-26T07:18:17.186Z,19.10
2019-04-26T07:21:32.723Z,19.20
2019-04-26T07:24:48.530Z,19.30
2019-04-26T07:28:06.075Z,19.40
2019-04-26T07:30:58.186Z,19.50
2019-04-26T07:33:58.409Z,19.60
2019-04-26T07:36:56.301Z,19.70
2019-04-26T07:39:54.325Z,19.80
2019-04-26T07:43:13.234Z,19.90
2019-04-26T07:46:18.171Z,20.00
2019-04-26T07:49:31.161Z,20.10
2019-04-26T07:52:49.884Z,20.20
2019-04-26T07:56:02.309Z,20.40
2019-04-26T07:59:27.851Z,20.50
2019-04-26T08:02:30.876Z,20.60
2019-04-26T08:05:09.581Z,20.80
2019-04-26T08:07:44.745Z,20.90
2019-04-26T08:10:18.759Z,20.90
2019-04-26T08:12:55.019Z,21.00
2019-04-26T08:15:46.022Z,21.10
2019-04-26T08:18:39.879Z,21.20
2019-04-26T08:21:23.403Z,21.30
2019-04-26T08:24:10.684Z,21.40
2019-04-26T08:26:49.886Z,21.50
2019-04-26T08:29:29.828Z,21.60
2019-04-26T08:32:02.892Z,21.70
2019-04-26T08:34:34.768Z,21.80
2019-04-26T08:37:20.356Z,21.90
2019-04-26T08:39:52.016Z,22.00
2019-04-26T08:42:25.122Z,22.10
2019-04-26T08:45:10.348Z,22.20
2019-04-26T08:47:58.255Z,22.30
2019-04-26T08:50:33.604Z,22.40
2019-04-26T08:53:04.981Z,22.50
2019-04-26T08:55:38.932Z,22.60
2019-04-26T08:58:12.201Z,22.70
2019-04-26T09:00:52.301Z,22.80
2019-04-26T09:03:39.084Z,22.90
2019-04-26T09:06:30.093Z,23.00
2019-04-26T09:09:04.086Z,23.10
2019-04-26T09:11:36.402Z,23.20
2019-04-26T09:14:07.991Z,23.30
2019-04-26T09:16:49.645Z,23.40
2019-04-26T09:19:09.255Z,23.50
2019-04-26T09:22:12.233Z,23.60
2019-04-26T09:24:40.147Z,23.70
2019-04-26T09:27:22.551Z,23.80
2019-04-26T09:30:09.749Z,23.80
2019-04-26T09:33:02.062Z,23.90
2019-04-26T09:35:34.472Z,23.90
2019-04-26T09:38:04.307Z,23.90
2019-04-26T09:40:34.041Z,23.90
2019-04-26T09:43:25.473Z,23.90
2019-04-26T09:46:18.327Z,23.90
2019-04-26T09:49:03.079Z,23.80
2019-04-26T09:51:34.774Z,23.80
2019-04-26T09:54:05.075Z,23.80
2019-04-26T09:56:34.782Z,23.80
2019-04-26T09:59:05.694Z,23.80
2019-04-26T10:01:38.098Z,23.80
2019-04-26T10:04:07.827Z,23.90
2019-04-26T10:06:37.549Z,23.80
2019-04-26T10:09:17.211Z,23.90
2019-04-26T10:11:51.653Z,24.00
2019-04-26T10:14:29.529Z,24.00
2019-04-26T10:17:11.538Z,24.00
2019-04-26T10:19:49.541Z,24.00
2019-04-26T10:22:19.250Z,24.10
2019-04-26T10:24:49.038Z,24.10
2019-04-26T10:27:18.767Z,24.10
2019-04-26T10:29:50.946Z,24.10
2019-04-26T10:32:21.665Z,24.10
2019-04-26T10:34:53.176Z,24.20
2019-04-26T10:37:24.535Z,24.20
2019-04-26T10:39:54.455Z,24.30
2019-04-26T10:42:24.323Z,24.30
2019-04-26T10:44:54.121Z,24.30
2019-04-26T10:47:25.488Z,24.40
2019-04-26T10:49:58.174Z,24.50
2019-04-26T10:52:55.620Z,24.50
2019-04-26T10:55:46.471Z,24.50
2019-04-26T10:58:36.189Z,24.50
2019-04-26T11:01:12.353Z,24.50
2019-04-26T11:03:42.370Z,24.60
2019-04-26T11:06:13.887Z,24.60
2019-04-26T11:08:44.095Z,24.70
2019-04-26T11:11:14.013Z,24.80
2019-04-26T11:13:44.655Z,24.80
2019-04-26T11:16:14.472Z,24.90
2019-04-26T11:18:47.305Z,24.90
2019-04-26T11:21:25.096Z,24.90
2019-04-26T11:23:54.851Z,24.90
2019-04-26T11:26:24.626Z,25.00
2019-04-26T11:28:55.776Z,25.00
2019-04-26T11:31:27.832Z,25.10
2019-04-26T11:34:05.043Z,25.10
2019-04-26T11:36:37.540Z,25.10
2019-04-26T11:39:16.347Z,25.20
2019-04-26T11:41:45.059Z,25.20
2019-04-26T11:44:14.892Z,25.30
2019-04-26T11:46:45.480Z,25.40
2019-04-26T11:49:15.462Z,25.50
2019-04-26T11:51:45.213Z,25.60
2019-04-26T11:54:17.004Z,25.60
2019-04-26T11:56:50.207Z,25.70
2019-04-26T11:59:18.997Z,25.90
2019-04-26T12:01:50.465Z,26.00
2019-04-26T12:05:03.066Z,26.10
2019-04-26T12:12:27.494Z,26.30
2019-04-26T12:15:08.414Z,25.80
2019-04-26T12:17:58.068Z,26.30
2019-04-26T12:20:22.405Z,26.40
2019-04-26T12:22:52.919Z,26.50
2019-04-26T12:25:31.085Z,26.50
2019-04-26T12:28:01.950Z,26.50
2019-04-26T12:30:32.047Z,26.60
2019-04-26T12:33:04.527Z,26.70
2019-04-26T12:35:34.206Z,26.80
2019-04-26T12:38:04.013Z,27.00
2019-04-26T12:40:33.738Z,27.10
2019-04-26T12:43:03.498Z,27.20
2019-04-26T12:45:59.086Z,27.40
2019-04-26T12:48:29.537Z,27.50
2019-04-26T12:50:59.834Z,27.60
2019-04-26T12:53:31.467Z,27.70
2019-04-26T12:56:00.908Z,27.80
2019-04-26T12:58:30.663Z,27.90
2019-04-26T13:01:01.084Z,28.00
2019-04-26T13:03:31.659Z,28.20
2019-04-26T13:06:01.635Z,28.30
2019-04-26T13:08:31.753Z,28.40
2019-04-26T13:11:21.116Z,28.50
2019-04-26T13:14:05.709Z,28.70
2019-04-26T13:16:43.253Z,29.00
2019-04-26T13:19:16.154Z,29.30
2019-04-26T13:21:44.299Z,29.60
2019-04-26T13:24:14.255Z,29.80
2019-04-26T13:26:52.105Z,29.90
2019-04-26T13:29:21.795Z,29.70
2019-04-26T13:31:51.408Z,29.90
2019-04-26T13:34:23.000Z,30.50
2019-04-26T13:36:52.669Z,31.30
2019-04-26T13:39:22.959Z,32.30
2019-04-26T13:42:03.039Z,33.10
2019-04-26T13:44:43.715Z,33.90
2019-04-26T13:47:33.623Z,34.60
2019-04-26T13:50:18.363Z,35.30
2019-04-26T13:52:48.600Z,35.90
2019-04-26T13:55:18.194Z,36.20
2019-04-26T13:57:50.164Z,36.10
2019-04-26T14:00:26.182Z,36.00
2019-04-26T14:02:56.232Z,36.00
2019-04-26T14:05:26.631Z,36.20
2019-04-26T14:07:56.910Z,36.20
2019-04-26T14:10:26.757Z,36.40
2019-04-26T14:12:56.392Z,36.20
2019-04-26T14:15:26.070Z,35.60
2019-04-26T14:17:56.059Z,34.90
2019-04-26T14:20:26.781Z,34.40
2019-04-26T14:23:33.618Z,34.50
2019-04-26T14:26:09.243Z,34.90
2019-04-26T14:28:41.797Z,35.50
2019-04-26T14:31:12.286Z,35.90
2019-04-26T14:33:43.289Z,36.40
2019-04-26T14:36:17.958Z,36.70
2019-04-26T14:38:45.571Z,37.00
2019-04-26T14:41:21.985Z,37.40
2019-04-26T14:43:46.680Z,37.60
2019-04-26T14:46:16.465Z,37.80
2019-04-26T14:49:00.326Z,38.00
2019-04-26T14:51:19.293Z,38.10
2019-04-26T14:53:48.928Z,38.10
2019-04-26T14:56:19.023Z,38.10
2019-04-26T14:58:49.091Z,38.20
2019-04-26T15:01:37.748Z,38.20
2019-04-26T15:04:28.303Z,38.10
2019-04-26T15:06:59.669Z,38.00
2019-04-26T15:09:34.233Z,38.00
2019-04-26T15:12:03.482Z,38.00
2019-04-26T15:14:33.260Z,38.00
2019-04-26T15:17:03.079Z,37.90
2019-04-26T15:19:35.180Z,37.90
2019-04-26T15:22:10.398Z,38.00
2019-04-26T15:24:38.723Z,38.00
2019-04-26T15:27:08.538Z,37.90
2019-04-26T15:29:38.162Z,37.70
2019-04-26T15:32:07.861Z,37.70
2019-04-26T15:34:37.578Z,37.40
2019-04-26T15:37:07.264Z,37.30
2019-04-26T15:39:58.463Z,37.20
2019-04-26T15:42:44.129Z,37.10
2019-04-26T15:45:52.564Z,37.10
2019-04-26T15:48:42.918Z,37.00
2019-04-26T15:51:13.569Z,37.00
2019-04-26T15:53:48.795Z,36.80
2019-04-26T15:56:26.721Z,36.80
2019-04-26T15:58:52.357Z,36.50
2019-04-26T16:01:22.093Z,36.40
2019-04-26T16:03:54.132Z,36.10
2019-04-26T16:06:25.553Z,35.80
2019-04-26T16:08:55.325Z,35.40
2019-04-26T16:11:25.066Z,35.00
2019-04-26T16:13:57.096Z,34.60
2019-04-26T16:16:29.207Z,34.30
2019-04-26T16:19:00.408Z,33.90
2019-04-26T16:21:30.085Z,33.50
2019-04-26T16:23:59.827Z,33.00
2019-04-26T16:26:29.603Z,32.60
2019-04-26T16:29:19.666Z,32.20
2019-04-26T16:32:12.674Z,31.80
2019-04-26T16:34:47.685Z,31.40
2019-04-26T16:37:23.825Z,31.10
2019-04-26T16:39:53.910Z,30.80
2019-04-26T16:42:23.647Z,30.60
2019-04-26T16:44:55.275Z,30.40
2019-04-26T16:47:48.535Z,30.30
2019-04-26T16:50:23.233Z,30.00
2019-04-26T16:52:48.586Z,29.80
2019-04-26T16:55:21.158Z,29.60
2019-04-26T16:57:55.602Z,29.50
2019-04-26T17:00:31.908Z,29.20
2019-04-26T17:03:15.306Z,29.10
2019-04-26T17:05:48.520Z,28.90
2019-04-26T17:08:19.317Z,28.70
2019-04-26T17:10:56.384Z,28.60
2019-04-26T17:13:29.838Z,28.50
2019-04-26T17:15:59.893Z,28.40
2019-04-26T17:18:32.816Z,28.20
2019-04-26T17:21:04.106Z,28.10
2019-04-26T17:24:14.546Z,28.00
2019-04-26T17:26:50.444Z,27.90
2019-04-26T17:29:20.672Z,27.80
2019-04-26T17:31:52.135Z,27.60
2019-04-26T17:34:28.468Z,27.50
2019-04-26T17:36:53.518Z,27.40
2019-04-26T17:39:23.204Z,27.30
2019-04-26T17:41:54.386Z,27.20
2019-04-26T17:44:26.687Z,27.00
2019-04-26T17:47:00.169Z,26.90
2019-04-26T17:49:34.399Z,26.80
2019-04-26T17:52:04.757Z,26.70
2019-04-26T17:54:46.251Z,26.50
2019-04-26T17:57:14.319Z,26.60
2019-04-26T17:59:47.618Z,26.40
2019-04-26T18:02:31.175Z,26.30
2019-04-26T18:04:57.841Z,26.10
2019-04-26T18:07:37.639Z,26.10
2019-04-26T18:09:47.945Z,26.00
2019-04-26T18:12:20.652Z,25.90
2019-04-26T18:14:50.518Z,25.80
2019-04-26T18:17:27.889Z,25.70
2019-04-26T18:20:15.347Z,25.70
2019-04-26T18:22:49.060Z,25.60
2019-04-26T18:25:18.876Z,25.50
2019-04-26T18:27:49.130Z,25.40
2019-04-26T18:30:23.669Z,25.30
2019-04-26T18:32:56.063Z,25.30
2019-04-26T18:35:28.406Z,25.20
2019-04-26T18:37:58.449Z,25.10
2019-04-26T18:40:29.413Z,25.00
2019-04-26T18:43:03.293Z,24.90
2019-04-26T18:45:32.961Z,24.90
2019-04-26T18:48:04.716Z,24.80
2019-04-26T18:50:36.497Z,24.70
2019-04-26T18:53:25.847Z,24.60
2019-04-26T18:55:59.340Z,24.50
2019-04-26T18:58:30.260Z,24.60
2019-04-26T19:01:01.746Z,24.50
2019-04-26T19:03:33.752Z,24.40
2019-04-26T19:06:07.555Z,24.30
2019-04-26T19:08:45.514Z,24.30
2019-04-26T19:11:11.832Z,24.20
2019-04-26T19:13:59.018Z,24.10
2019-04-26T19:16:36.997Z,24.10
2019-04-26T19:19:15.340Z,24.00
2019-04-26T19:21:54.667Z,23.90
2019-04-26T19:24:25.655Z,23.90
2019-04-26T19:26:56.859Z,23.90
2019-04-26T19:29:31.320Z,23.80
2019-04-26T19:32:01.505Z,23.70
2019-04-26T19:34:30.473Z,23.70
2019-04-26T19:37:04.231Z,23.60
2019-04-26T19:39:35.784Z,23.60
2019-04-26T19:42:06.217Z,23.50
2019-04-26T19:44:36.330Z,23.50
2019-04-26T19:47:18.700Z,23.40
2019-04-26T19:50:09.879Z,23.40
2019-04-26T19:52:46.129Z,23.30
2019-04-26T19:55:48.390Z,23.20
2019-04-26T19:58:20.774Z,23.20
2019-04-26T20:00:52.480Z,23.10
2019-04-26T20:03:23.275Z,23.00
2019-04-26T20:05:54.097Z,23.00
2019-04-26T20:08:34.630Z,22.90
2019-04-26T20:10:58.145Z,22.90
2019-04-26T20:13:42.593Z,22.80
2019-04-26T20:16:28.672Z,22.80
2019-04-26T20:19:03.891Z,22.70
2019-04-26T20:21:41.400Z,22.70
2019-04-26T20:24:09.899Z,22.60
2019-04-26T20:26:44.680Z,22.60
2019-04-26T20:29:18.380Z,22.50
2019-04-26T20:32:02.184Z,22.50
2019-04-26T20:34:34.239Z,22.50
2019-04-26T20:37:07.881Z,22.40
2019-04-26T20:39:43.259Z,22.40
2019-04-26T20:42:14.460Z,22.40
2019-04-26T20:44:51.032Z,22.40
2019-04-26T20:47:17.813Z,22.30
2019-04-26T20:50:00.800Z,22.30
2019-04-26T20:52:25.259Z,22.20
2019-04-26T20:54:55.244Z,22.20
2019-04-26T20:57:37.466Z,22.10
2019-04-26T21:00:22.494Z,22.10
2019-04-26T21:03:01.442Z,22.10
2019-04-26T21:05:26.072Z,22.00
2019-04-26T21:07:56.213Z,21.90
2019-04-26T21:10:32.374Z,21.90
2019-04-26T21:13:08.431Z,21.80
2019-04-26T21:15:53.450Z,21.80
2019-04-26T21:18:14.994Z,21.80
2019-04-26T21:20:44.782Z,21.80
2019-04-26T21:23:18.642Z,21.70
2019-04-26T21:26:07.078Z,21.70
2019-04-26T21:28:54.116Z,21.70
2019-04-26T21:31:40.941Z,21.60
2019-04-26T21:34:17.620Z,21.70
2019-04-26T21:37:22.278Z,21.60
2019-04-26T21:40:01.620Z,21.50
2019-04-26T21:42:43.363Z,21.40
2019-04-26T21:45:11.986Z,21.40
2019-04-26T21:47:43.402Z,21.40
2019-04-26T21:50:13.603Z,21.30
2019-04-26T21:53:03.371Z,21.30
2019-04-26T21:55:38.316Z,21.30
2019-04-26T21:58:05.197Z,21.20
2019-04-26T22:00:53.980Z,21.20
2019-04-26T22:03:23.823Z,21.20
2019-04-26T22:05:54.172Z,21.20
2019-04-26T22:08:27.627Z,21.10
2019-04-26T22:10:57.407Z,21.10
2019-04-26T22:13:41.500Z,21.10
2019-04-26T22:16:34.148Z,21.10
2019-04-26T22:19:23.840Z,21.10
2019-04-26T22:22:11.307Z,21.10
2019-04-26T22:24:41.003Z,21.00
2019-04-26T22:27:13.083Z,21.00
2019-04-26T22:29:43.634Z,20.90
2019-04-26T22:32:16.033Z,20.90
2019-04-26T22:34:46.591Z,20.90
2019-04-26T22:37:29.200Z,20.90
2019-04-26T22:39:47.603Z,20.80
2019-04-26T22:42:18.000Z,20.80
2019-04-26T22:45:03.231Z,20.70
2019-04-26T22:47:40.832Z,20.70
2019-04-26T22:50:07.985Z,20.60
2019-04-26T22:52:37.643Z,20.50
2019-04-26T22:55:07.957Z,20.50
2019-04-26T22:57:37.673Z,20.40
2019-04-26T23:00:08.774Z,20.40
2019-04-26T23:02:38.396Z,20.40
2019-04-26T23:05:08.319Z,20.40
2019-04-26T23:07:38.028Z,20.40
2019-04-26T23:10:09.620Z,20.40
2019-04-26T23:12:57.963Z,20.40
2019-04-26T23:15:48.307Z,20.40
2019-04-26T23:18:43.873Z,20.40
2019-04-26T23:21:30.197Z,20.40
2019-04-26T23:23:59.907Z,20.30
2019-04-26T23:26:29.566Z,20.30
2019-04-26T23:28:59.383Z,20.30
2019-04-26T23:31:29.087Z,20.30
2019-04-26T23:34:00.279Z,20.30
2019-04-26T23:36:29.994Z,20.30
2019-04-26T23:38:59.718Z,20.30
2019-04-26T23:41:33.593Z,20.30
2019-04-26T23:44:06.661Z,20.20
2019-04-26T23:46:35.101Z,20.20
2019-04-26T23:49:04.838Z,20.20
2019-04-26T23:51:38.265Z,20.10
2019-04-26T23:54:05.906Z,20.10
2019-04-26T23:56:35.548Z,20.10
2019-04-26T23:59:05.328Z,20.00
